Time;durP1;ratioP1;P1;durP2;ratioP2;P2;SDS_P1;SDS_P2;PMS_P1;PMS_P2;Temp;Humidity;BMP_temperature;BMP_pressure;BME280_temperature;BME280_humidity;BME280_pressure;Samples;Min_cycle;Max_cycle;Signal;HPM_P1;HPM_P2
2023/04/13 00:00:51;;;;;;;3.88;1.88;;;;;;;;;;5066243;28;19927;-72
2023/04/13 00:03:17;;;;;;;3.90;1.80;;;;;;;;;;5101635;28;20400;-72
2023/04/13 00:05:44;;;;;;;3.33;1.85;;;;;;;;;;5067659;28;20044;-72
2023/04/13 00:08:11;;;;;;;3.80;1.70;;;;;;;;;;5102882;28;20419;-72
2023/04/13 00:10:40;;;;;;;3.15;1.80;;;;;;;;;;5068741;28;20056;-73
2023/04/13 00:13:07;;;;;;;3.35;2.00;;;;;;;;;;5032938;28;20568;-75
2023/04/13 00:15:35;;;;;;;3.42;1.90;;;;;;;;;;5098352;28;20059;-74
2023/04/13 00:18:01;;;;;;;3.72;1.83;;;;;;;;;;5100065;28;20062;-75
2023/04/13 00:20:28;;;;;;;3.20;1.63;;;;;;;;;;5068357;28;20071;-75
2023/04/13 00:22:54;;;;;;;2.72;1.58;;;;;;;;;;5067784;28;20365;-74
2023/04/13 00:25:20;;;;;;;2.72;1.88;;;;;;;;;;5068550;28;20397;-76
2023/04/13 00:27:46;;;;;;;2.70;1.73;;;;;;;;;;5068584;28;20141;-75
2023/04/13 00:30:13;;;;;;;4.57;2.38;;;;;;;;;;5068672;28;20048;-74
2023/04/13 00:32:41;;;;;;;4.40;2.00;;;;;;;;;;5051658;28;20048;-74
2023/04/13 00:35:08;;;;;;;4.28;1.75;;;;;;;;;;5102457;28;20475;-75
2023/04/13 00:37:34;;;;;;;3.17;1.95;;;;;;;;;;5068211;28;20495;-74
2023/04/13 00:40:00;;;;;;;3.60;1.90;;;;;;;;;;5102179;28;20052;-75
2023/04/13 00:42:26;;;;;;;4.25;2.10;;;;;;;;;;5102091;28;20423;-74
2023/04/13 00:44:53;;;;;;;3.20;2.03;;;;;;;;;;5071732;28;20135;-74
2023/04/13 00:47:31;;;;;;;4.43;1.98;;;;;;;;;;5088777;28;20044;-74
2023/04/13 00:49:58;;;;;;;3.95;2.15;;;;;;;;;;5089152;28;20140;-74
2023/04/13 00:52:24;;;;;;;5.43;2.20;;;;;;;;;;5079811;28;20400;-75
2023/04/13 00:54:50;;;;;;;4.05;2.53;;;;;;;;;;5062167;28;20407;-74
2023/04/13 00:57:18;;;;;;;3.92;2.25;;;;;;;;;;5070874;28;20083;-75
2023/04/13 00:59:46;;;;;;;4.85;2.50;;;;;;;;;;5053361;28;20177;-75
2023/04/13 01:02:14;;;;;;;3.53;1.92;;;;;;;;;;5069836;28;20051;-75
2023/04/13 01:04:41;;;;;;;3.83;2.30;;;;;;;;;;5070434;28;20423;-74
2023/04/13 01:07:11;;;;;;;3.42;2.17;;;;;;;;;;5070737;28;20036;-74
2023/04/13 01:09:56;;;;;;;3.60;2.38;;;;;;;;;;5070920;28;20047;-74
2023/04/13 01:12:34;;;;;;;3.83;2.28;;;;;;;;;;5069145;28;20048;-73
2023/04/13 01:15:05;;;;;;;3.22;2.63;;;;;;;;;;5103666;28;20094;-73
2023/04/13 01:17:33;;;;;;;5.05;2.75;;;;;;;;;;5069336;28;20496;-73
2023/04/13 01:20:00;;;;;;;3.60;2.50;;;;;;;;;;5053404;28;20557;-73
2023/04/13 01:22:30;;;;;;;5.00;3.13;;;;;;;;;;5070638;28;20032;-73
2023/04/13 01:25:02;;;;;;;3.28;2.50;;;;;;;;;;5070283;28;20079;-73
2023/04/13 01:27:41;;;;;;;4.22;2.83;;;;;;;;;;5070091;28;20042;-73
2023/04/13 01:30:09;;;;;;;5.13;2.30;;;;;;;;;;5070525;28;20132;-73
2023/04/13 01:32:40;;;;;;;4.00;2.80;;;;;;;;;;5053532;28;20097;-73
2023/04/13 01:35:09;;;;;;;4.35;2.55;;;;;;;;;;5103809;28;20059;-73
2023/04/13 01:37:38;;;;;;;2.50;2.08;;;;;;;;;;5103437;28;20125;-73
2023/04/13 01:40:09;;;;;;;6.13;2.85;;;;;;;;;;5102731;28;21287;-73
2023/04/13 01:42:36;;;;;;;4.32;2.00;;;;;;;;;;5069796;28;20111;-74
2023/04/13 01:45:04;;;;;;;;;;;;;;;;;;5104042;28;20060;-74
2023/04/13 01:47:32;;;;;;;3.08;1.95;;;;;;;;;;5069915;28;19967;-73
2023/04/13 01:50:02;;;;;;;5.15;2.28;;;;;;;;;;5104004;28;20050;-74
2023/04/13 01:52:29;;;;;;;3.00;1.90;;;;;;;;;;5069781;28;20048;-73
2023/04/13 01:54:56;;;;;;;3.67;2.00;;;;;;;;;;5103004;28;20131;-73
2023/04/13 01:57:24;;;;;;;3.35;1.90;;;;;;;;;;5070102;28;20093;-74
2023/04/13 01:59:50;;;;;;;2.95;2.00;;;;;;;;;;5103152;28;20045;-74
2023/04/13 02:02:16;;;;;;;2.75;1.85;;;;;;;;;;5036748;28;20047;-73
2023/04/13 02:04:42;;;;;;;3.75;1.70;;;;;;;;;;5102749;28;20610;-73
2023/04/13 02:07:11;;;;;;;4.70;1.80;;;;;;;;;;5070433;28;20119;-73
2023/04/13 02:09:37;;;;;;;2.95;1.75;;;;;;;;;;5054193;28;20548;-73
2023/04/13 02:12:03;;;;;;;1.95;1.42;;;;;;;;;;5103592;28;20067;-74
2023/04/13 02:14:29;;;;;;;4.18;1.85;;;;;;;;;;5072075;28;20036;-73
2023/04/13 02:16:55;;;;;;;;;;;;;;;;;;5104987;28;20048;-73
2023/04/13 02:19:23;;;;;;;3.65;1.67;;;;;;;;;;5070577;28;19924;-74
2023/04/13 02:21:49;;;;;;;3.10;1.60;;;;;;;;;;5071014;28;20040;-74
2023/04/13 02:24:15;;;;;;;3.10;1.45;;;;;;;;;;5070536;28;20045;-74
2023/04/13 02:26:42;;;;;;;2.80;1.60;;;;;;;;;;5070618;28;20075;-74
2023/04/13 02:29:08;;;;;;;3.72;1.70;;;;;;;;;;5087755;28;20440;-73
2023/04/13 02:31:35;;;;;;;3.55;1.48;;;;;;;;;;5104507;28;20135;-74
2023/04/13 02:34:01;;;;;;;3.45;1.75;;;;;;;;;;5104426;28;20372;-74
2023/04/13 02:36:27;;;;;;;;;;;;;;;;;;5087867;28;20123;-73
2023/04/13 02:38:53;;;;;;;2.33;1.38;;;;;;;;;;5070122;28;20016;-74
2023/04/13 02:41:21;;;;;;;4.38;1.60;;;;;;;;;;5070310;28;20479;-74
2023/04/13 02:43:49;;;;;;;1.90;1.45;;;;;;;;;;5053666;28;20094;-74
2023/04/13 02:46:15;;;;;;;3.53;1.50;;;;;;;;;;5070523;28;20044;-74
2023/04/13 02:48:41;;;;;;;4.28;1.50;;;;;;;;;;5071427;28;20139;-74
2023/04/13 02:51:07;;;;;;;3.45;1.50;;;;;;;;;;5070164;28;20040;-74
2023/04/13 02:53:34;;;;;;;3.80;1.40;;;;;;;;;;5070070;28;20040;-75
2023/04/13 02:56:01;;;;;;;3.95;1.20;;;;;;;;;;5053707;28;20060;-74
2023/04/13 02:58:31;;;;;;;3.17;1.10;;;;;;;;;;5069818;28;20060;-74
2023/04/13 03:00:57;;;;;;;1.85;1.35;;;;;;;;;;5070077;28;20492;-74
2023/04/13 03:03:23;;;;;;;1.85;1.08;;;;;;;;;;5069746;28;20094;-74
2023/04/13 03:05:50;;;;;;;2.35;1.63;;;;;;;;;;5103863;28;20040;-74
2023/04/13 03:08:16;;;;;;;3.25;1.13;;;;;;;;;;5067241;28;20079;-75
2023/04/13 03:10:44;;;;;;;2.92;0.98;;;;;;;;;;5102782;28;20062;-75
2023/04/13 03:13:10;;;;;;;1.52;0.98;;;;;;;;;;5068602;28;20040;-75
2023/04/13 03:15:37;;;;;;;3.67;1.30;;;;;;;;;;5103054;28;20040;-75
2023/04/13 03:18:03;;;;;;;2.13;1.00;;;;;;;;;;5051298;28;20123;-75
2023/04/13 03:20:29;;;;;;;1.90;1.00;;;;;;;;;;5069100;28;20400;-74
2023/04/13 03:22:57;;;;;;;1.55;0.82;;;;;;;;;;5067796;28;20051;-74
2023/04/13 03:25:23;;;;;;;1.63;1.00;;;;;;;;;;5068727;28;20045;-74
2023/04/13 03:27:50;;;;;;;1.23;0.90;;;;;;;;;;5102984;28;20045;-74
2023/04/13 03:30:17;;;;;;;1.55;0.90;;;;;;;;;;5052909;28;20423;-75
2023/04/13 03:32:43;;;;;;;1.83;0.82;;;;;;;;;;5103375;28;20506;-74
2023/04/13 03:35:10;;;;;;;2.00;1.10;;;;;;;;;;5102438;28;20048;-74
2023/04/13 03:37:41;;;;;;;2.38;1.08;;;;;;;;;;5068951;28;20123;-74
2023/04/13 03:40:10;;;;;;;2.38;1.02;;;;;;;;;;5063237;28;20506;-74
2023/04/13 03:42:37;;;;;;;1.52;0.80;;;;;;;;;;5060004;28;20040;-74
2023/04/13 03:45:03;;;;;;;;;;;;;;;;;;5062273;28;20053;-74
2023/04/13 03:47:29;;;;;;;2.67;0.90;;;;;;;;;;5065045;28;19959;-74
2023/04/13 03:49:55;;;;;;;1.35;0.90;;;;;;;;;;5069036;28;20040;-74
2023/04/13 03:52:21;;;;;;;2.05;1.17;;;;;;;;;;5102990;28;20724;-73
2023/04/13 03:54:47;;;;;;;1.98;0.98;;;;;;;;;;5099113;27;20332;-73
2023/04/13 03:57:14;;;;;;;1.15;1.00;;;;;;;;;;5074435;28;20372;-72
2023/04/13 03:59:40;;;;;;;2.53;1.20;;;;;;;;;;5068412;28;20045;-72
2023/04/13 04:02:06;;;;;;;3.55;1.00;;;;;;;;;;5066639;28;20036;-72
2023/04/13 04:04:32;;;;;;;1.27;1.00;;;;;;;;;;5065948;28;20067;-72
2023/04/13 04:06:58;;;;;;;2.65;1.00;;;;;;;;;;5051165;28;20044;-72
2023/04/13 04:09:25;;;;;;;3.55;1.30;;;;;;;;;;5066640;28;20055;-72
2023/04/13 04:11:50;;;;;;;;;;;;;;;;;;5068665;28;20492;-72
2023/04/13 04:14:16;;;;;;;1.55;0.98;;;;;;;;;;5067111;28;19927;-72
2023/04/13 04:16:43;;;;;;;2.83;1.20;;;;;;;;;;5051084;28;20144;-72
2023/04/13 04:19:09;;;;;;;1.77;1.02;;;;;;;;;;5069011;28;20118;-72
2023/04/13 04:21:35;;;;;;;4.43;1.48;;;;;;;;;;5070775;28;20040;-72
2023/04/13 04:24:01;;;;;;;3.35;1.23;;;;;;;;;;5105936;28;20079;-72
2023/04/13 04:26:28;;;;;;;2.83;1.20;;;;;;;;;;5068373;28;20139;-73
2023/04/13 04:29:00;;;;;;;1.42;1.00;;;;;;;;;;5069929;28;20098;-73
2023/04/13 04:31:30;;;;;;;2.30;1.08;;;;;;;;;;5071650;28;20133;-73
2023/04/13 04:33:57;;;;;;;2.13;1.30;;;;;;;;;;5071870;28;20048;-73
2023/04/13 04:36:25;;;;;;;1.75;1.10;;;;;;;;;;5070382;28;20518;-73
2023/04/13 04:38:56;;;;;;;2.13;1.17;;;;;;;;;;5068198;28;20048;-73
2023/04/13 04:41:23;;;;;;;2.83;1.23;;;;;;;;;;5068810;28;20059;-73
2023/04/13 04:43:49;;;;;;;;;;;;;;;;;;5069099;28;20127;-73
2023/04/13 04:46:15;;;;;;;1.45;1.10;;;;;;;;;;5067013;28;20363;-73
2023/04/13 04:48:41;;;;;;;;;;;;;;;;;;5072059;28;20127;-73
2023/04/13 04:51:07;;;;;;;1.30;0.90;;;;;;;;;;5071155;28;20003;-73
2023/04/13 04:53:34;;;;;;;1.38;0.80;;;;;;;;;;5068993;28;20041;-73
2023/04/13 04:56:00;;;;;;;1.02;0.88;;;;;;;;;;5071826;28;20465;-73
2023/04/13 04:58:26;;;;;;;1.85;1.00;;;;;;;;;;5074439;28;20397;-73
2023/04/13 05:00:52;;;;;;;1.45;1.20;;;;;;;;;;5071474;28;20395;-73
2023/04/13 05:03:19;;;;;;;;;;;;;;;;;;5072707;28;20378;-73
2023/04/13 05:05:45;;;;;;;1.30;1.10;;;;;;;;;;5070824;28;19924;-72
2023/04/13 05:08:12;;;;;;;2.38;1.40;;;;;;;;;;5041396;28;20037;-72
2023/04/13 05:10:43;;;;;;;2.38;1.38;;;;;;;;;;5091584;28;20043;-72
2023/04/13 05:13:10;;;;;;;2.58;1.50;;;;;;;;;;5082247;28;20483;-72
2023/04/13 05:15:36;;;;;;;2.58;1.52;;;;;;;;;;5075410;28;20076;-70
2023/04/13 05:18:03;;;;;;;3.03;1.67;;;;;;;;;;5103817;28;20047;-69
2023/04/13 05:20:29;;;;;;;2.22;1.45;;;;;;;;;;5067718;28;20036;-70
2023/04/13 05:22:56;;;;;;;2.90;1.92;;;;;;;;;;5067437;28;20039;-70
2023/04/13 05:25:22;;;;;;;2.97;2.08;;;;;;;;;;5066827;28;20056;-70
2023/04/13 05:27:48;;;;;;;4.07;1.85;;;;;;;;;;5048826;28;20115;-70
2023/04/13 05:30:14;;;;;;;2.40;2.20;;;;;;;;;;5051252;28;20063;-70
2023/04/13 05:32:42;;;;;;;3.05;2.40;;;;;;;;;;5050089;28;20566;-70
2023/04/13 05:35:09;;;;;;;4.75;2.88;;;;;;;;;;5051697;28;20048;-70
2023/04/13 05:37:38;;;;;;;2.55;2.20;;;;;;;;;;5034707;28;20051;-70
2023/04/13 05:40:07;;;;;;;3.30;2.30;;;;;;;;;;5051350;28;20053;-70
2023/04/13 05:42:33;;;;;;;3.65;2.30;;;;;;;;;;5018782;28;20834;-70
2023/04/13 05:44:59;;;;;;;2.92;2.15;;;;;;;;;;5051413;28;20056;-70
2023/04/13 05:47:26;;;;;;;4.32;2.40;;;;;;;;;;5051624;28;20045;-70
2023/04/13 05:49:52;;;;;;;2.17;1.80;;;;;;;;;;5051584;28;20095;-70
2023/04/13 05:52:18;;;;;;;2.33;1.90;;;;;;;;;;5051459;28;20048;-69
2023/04/13 05:54:44;;;;;;;4.18;2.20;;;;;;;;;;5034845;28;20041;-69
2023/04/13 05:57:10;;;;;;;;;;;;;;;;;;5051591;28;20044;-69
2023/04/13 05:59:37;;;;;;;4.18;2.72;;;;;;;;;;5050910;28;20248;-69
2023/04/13 06:02:03;;;;;;;;;;;;;;;;;;5051446;28;20156;-69
2023/04/13 06:04:30;;;;;;;4.88;2.50;;;;;;;;;;5051004;28;19971;-69
2023/04/13 06:06:56;;;;;;;3.85;2.03;;;;;;;;;;5050755;28;20041;-69
2023/04/13 06:09:23;;;;;;;3.88;2.08;;;;;;;;;;5050797;28;20566;-69
2023/04/13 06:11:49;;;;;;;2.90;2.00;;;;;;;;;;5017692;28;20557;-69
2023/04/13 06:14:16;;;;;;;2.88;1.85;;;;;;;;;;5034228;28;20052;-69
2023/04/13 06:16:42;;;;;;;3.97;2.30;;;;;;;;;;5050869;28;20123;-69
2023/04/13 06:19:08;;;;;;;;;;;;;;;;;;5051230;28;20040;-69
2023/04/13 06:21:34;;;;;;;4.28;2.42;;;;;;;;;;5060827;28;20350;-70
2023/04/13 06:24:00;;;;;;;7.13;2.03;;;;;;;;;;5070678;28;20052;-70
2023/04/13 06:26:27;;;;;;;4.35;2.08;;;;;;;;;;5070693;28;20394;-69
2023/04/13 06:28:53;;;;;;;4.63;2.10;;;;;;;;;;5070641;28;20175;-69
2023/04/13 06:31:22;;;;;;;3.90;1.92;;;;;;;;;;5054020;28;20441;-69
2023/04/13 06:33:49;;;;;;;3.65;2.05;;;;;;;;;;5070408;28;20044;-69
2023/04/13 06:36:15;;;;;;;3.08;1.88;;;;;;;;;;5053784;28;20063;-69
2023/04/13 06:38:41;;;;;;;4.20;1.73;;;;;;;;;;5071539;28;20060;-69
2023/04/13 06:41:07;;;;;;;5.05;1.63;;;;;;;;;;5070184;28;20043;-69
2023/04/13 06:43:33;;;;;;;4.65;1.70;;;;;;;;;;5070306;28;20077;-69
2023/04/13 06:46:01;;;;;;;4.70;1.73;;;;;;;;;;5070099;28;20056;-69
2023/04/13 06:48:27;;;;;;;6.20;1.80;;;;;;;;;;5069999;28;20404;-69
2023/04/13 06:50:58;;;;;;;2.92;1.50;;;;;;;;;;5070053;28;20504;-69
2023/04/13 06:53:24;;;;;;;4.40;1.63;;;;;;;;;;5053388;28;20491;-69
2023/04/13 06:55:50;;;;;;;5.65;1.55;;;;;;;;;;5070295;28;20045;-69
2023/04/13 06:58:16;;;;;;;3.28;1.70;;;;;;;;;;5069845;28;20048;-69
2023/04/13 07:00:42;;;;;;;3.40;2.17;;;;;;;;;;5069883;28;20045;-69
2023/04/13 07:03:08;;;;;;;3.15;1.50;;;;;;;;;;5070006;28;20048;-69
2023/04/13 07:05:35;;;;;;;4.07;2.13;;;;;;;;;;5069861;28;20072;-70
2023/04/13 07:08:01;;;;;;;3.45;1.83;;;;;;;;;;5069780;28;20042;-70
2023/04/13 07:10:27;;;;;;;5.00;2.50;;;;;;;;;;5053032;28;20434;-70
2023/04/13 07:12:53;;;;;;;6.18;2.40;;;;;;;;;;5069895;28;20044;-70
2023/04/13 07:15:19;;;;;;;3.90;2.33;;;;;;;;;;5052981;28;20048;-70
2023/04/13 07:17:45;;;;;;;5.60;2.22;;;;;;;;;;5069591;28;20044;-69
2023/04/13 07:20:12;;;;;;;4.90;2.67;;;;;;;;;;5069543;28;20040;-69
2023/04/13 07:22:38;;;;;;;7.40;2.65;;;;;;;;;;5069609;28;20068;-70
2023/04/13 07:25:04;;;;;;;7.40;2.80;;;;;;;;;;5052919;28;20045;-70
2023/04/13 07:27:32;;;;;;;7.72;2.65;;;;;;;;;;5069654;28;20492;-70
2023/04/13 07:29:58;;;;;;;5.82;2.20;;;;;;;;;;5069596;28;20468;-70
2023/04/13 07:32:26;;;;;;;;;;;;;;;;;;5053448;28;20044;-70
2023/04/13 07:34:52;;;;;;;5.80;2.70;;;;;;;;;;5052657;28;19942;-70
2023/04/13 07:37:18;;;;;;;5.53;2.38;;;;;;;;;;5052620;28;20044;-70
2023/04/13 07:39:44;;;;;;;6.20;2.22;;;;;;;;;;5069022;28;20049;-70
2023/04/13 07:42:11;;;;;;;7.07;2.42;;;;;;;;;;5103051;28;20048;-70
2023/04/13 07:44:37;;;;;;;7.28;3.03;;;;;;;;;;5068862;28;20052;-70
2023/04/13 07:47:03;;;;;;;5.20;2.20;;;;;;;;;;5069071;28;20037;-70
2023/04/13 07:49:29;;;;;;;6.78;2.35;;;;;;;;;;5052765;28;20487;-69
2023/04/13 07:51:55;;;;;;;6.32;2.80;;;;;;;;;;5069205;28;20056;-69
2023/04/13 07:54:21;;;;;;;5.63;2.40;;;;;;;;;;5068269;28;20117;-69
2023/04/13 07:56:47;;;;;;;6.57;2.60;;;;;;;;;;5102625;28;20121;-69
2023/04/13 07:59:13;;;;;;;5.68;2.42;;;;;;;;;;5052284;28;20484;-69
2023/04/13 08:01:40;;;;;;;7.95;2.28;;;;;;;;;;5068856;28;20079;-70
2023/04/13 08:04:06;;;;;;;5.68;2.30;;;;;;;;;;5069106;28;20099;-71
2023/04/13 08:06:32;;;;;;;5.88;2.10;;;;;;;;;;5068906;28;20041;-71
2023/04/13 08:08:59;;;;;;;7.20;2.00;;;;;;;;;;5068811;28;20476;-71
2023/04/13 08:11:25;;;;;;;5.63;1.95;;;;;;;;;;5068779;28;20126;-71
2023/04/13 08:13:51;;;;;;;9.30;2.00;;;;;;;;;;5052593;28;20048;-71
2023/04/13 08:16:18;;;;;;;4.47;1.60;;;;;;;;;;5068614;28;20131;-71
2023/04/13 08:18:44;;;;;;;6.35;1.55;;;;;;;;;;5068721;28;20055;-71
2023/04/13 08:21:10;;;;;;;6.78;1.55;;;;;;;;;;5068500;28;20093;-71
2023/04/13 08:23:37;;;;;;;3.22;1.20;;;;;;;;;;5068780;28;20048;-71
2023/04/13 08:26:04;;;;;;;4.05;1.35;;;;;;;;;;5068850;28;20041;-71
2023/04/13 08:28:31;;;;;;;4.43;1.10;;;;;;;;;;5052444;28;20049;-71
2023/04/13 08:30:57;;;;;;;3.30;1.45;;;;;;;;;;5068367;28;20041;-71
2023/04/13 08:33:23;;;;;;;2.78;1.45;;;;;;;;;;5068495;28;20187;-71
2023/04/13 08:35:50;;;;;;;3.47;1.30;;;;;;;;;;5068609;28;20049;-71
2023/04/13 08:38:18;;;;;;;2.75;1.00;;;;;;;;;;5051781;28;20044;-71
2023/04/13 08:40:45;;;;;;;2.78;1.05;;;;;;;;;;5069895;28;20613;-71
2023/04/13 08:43:12;;;;;;;3.95;1.20;;;;;;;;;;5051869;28;20041;-71
2023/04/13 08:45:41;;;;;;;3.15;1.20;;;;;;;;;;5068195;28;20064;-71
2023/04/13 08:48:10;;;;;;;4.95;1.33;;;;;;;;;;5051785;28;20173;-71
2023/04/13 08:50:36;;;;;;;3.35;1.17;;;;;;;;;;5068764;28;20403;-71
2023/04/13 08:53:02;;;;;;;;;;;;;;;;;;5069198;28;20157;-71
2023/04/13 08:55:28;;;;;;;4.35;1.15;;;;;;;;;;5068784;28;20351;-71
2023/04/13 08:57:56;;;;;;;2.13;0.98;;;;;;;;;;5068348;28;20072;-70
2023/04/13 09:00:23;;;;;;;2.75;0.80;;;;;;;;;;5068429;28;20464;-71
2023/04/13 09:02:57;;;;;;;2.55;0.90;;;;;;;;;;5068678;28;20072;-71
2023/04/13 09:05:25;;;;;;;4.90;0.98;;;;;;;;;;5070983;28;20044;-71
2023/04/13 09:07:56;;;;;;;5.45;0.93;;;;;;;;;;5072211;28;20057;-71
2023/04/13 09:10:24;;;;;;;3.45;0.90;;;;;;;;;;5072165;28;20052;-71
2023/04/13 09:12:50;;;;;;;3.42;0.80;;;;;;;;;;5072017;28;20048;-71
2023/04/13 09:15:16;;;;;;;3.38;1.00;;;;;;;;;;5055237;28;20114;-71
2023/04/13 09:17:43;;;;;;;1.42;0.80;;;;;;;;;;5071836;28;20086;-71
2023/04/13 09:20:09;;;;;;;;;;;;;;;;;;5072348;28;20088;-71
2023/04/13 09:22:35;;;;;;;2.47;0.93;;;;;;;;;;5071675;28;19920;-72
2023/04/13 09:25:01;;;;;;;3.45;0.98;;;;;;;;;;5072095;28;20435;-71
2023/04/13 09:27:27;;;;;;;;;;;;;;;;;;5072042;28;20048;-71
2023/04/13 09:29:54;;;;;;;3.85;1.20;;;;;;;;;;5071949;28;19923;-71
2023/04/13 09:32:21;;;;;;;3.28;0.98;;;;;;;;;;5071527;28;20480;-71
2023/04/13 09:35:03;;;;;;;3.75;1.00;;;;;;;;;;5071586;28;20428;-71
2023/04/13 09:37:31;;;;;;;2.60;0.93;;;;;;;;;;5071297;28;20075;-71
2023/04/13 09:40:27;;;;;;;2.42;1.17;;;;;;;;;;5071683;28;20551;-70
2023/04/13 09:43:08;;;;;;;2.30;1.10;;;;;;;;;;5063117;28;20052;-70
2023/04/13 09:45:38;;;;;;;5.88;1.27;;;;;;;;;;5054726;28;20135;-70
2023/04/13 09:48:05;;;;;;;2.63;0.70;;;;;;;;;;5071237;28;20048;-70
2023/04/13 09:50:35;;;;;;;2.45;0.60;;;;;;;;;;5054741;28;20158;-70
2023/04/13 09:53:05;;;;;;;1.60;0.50;;;;;;;;;;5071107;28;20084;-70
2023/04/13 09:55:32;;;;;;;2.30;0.50;;;;;;;;;;5071510;28;20048;-71
2023/04/13 09:58:18;;;;;;;1.63;0.40;;;;;;;;;;5071637;28;20102;-71
2023/04/13 10:00:45;;;;;;;1.65;0.30;;;;;;;;;;5071193;28;20496;-71
2023/04/13 10:03:13;;;;;;;0.35;0.22;;;;;;;;;;5071151;28;20044;-71
2023/04/13 10:05:40;;;;;;;1.63;0.30;;;;;;;;;;5070843;28;20047;-70
2023/04/13 10:08:06;;;;;;;1.02;0.30;;;;;;;;;;5054191;28;20044;-70
2023/04/13 10:10:33;;;;;;;0.82;0.30;;;;;;;;;;5071212;28;20053;-70
2023/04/13 10:13:01;;;;;;;0.43;0.30;;;;;;;;;;5071096;28;20079;-70
2023/04/13 10:15:45;;;;;;;1.85;0.38;;;;;;;;;;5070426;28;20044;-70
2023/04/13 10:18:26;;;;;;;0.70;0.30;;;;;;;;;;5070491;28;20094;-71
2023/04/13 10:20:53;;;;;;;0.93;0.30;;;;;;;;;;5070380;28;20464;-71
2023/04/13 10:23:20;;;;;;;0.98;0.30;;;;;;;;;;5070648;28;20123;-71
2023/04/13 10:25:53;;;;;;;1.67;0.43;;;;;;;;;;5070747;28;20047;-71
2023/04/13 10:28:19;;;;;;;1.05;0.30;;;;;;;;;;5070393;28;20041;-70
2023/04/13 10:30:49;;;;;;;1.45;0.28;;;;;;;;;;5053692;28;20044;-70
2023/04/13 10:33:16;;;;;;;2.67;0.20;;;;;;;;;;5053997;28;20461;-72
2023/04/13 10:35:42;;;;;;;0.95;0.50;;;;;;;;;;5070293;28;20392;-71
2023/04/13 10:38:09;;;;;;;0.45;0.40;;;;;;;;;;5070070;28;20503;-71
2023/04/13 10:40:45;;;;;;;1.00;0.50;;;;;;;;;;5070299;28;20055;-71
2023/04/13 10:43:11;;;;;;;1.25;0.45;;;;;;;;;;5070114;28;20037;-71
2023/04/13 10:45:37;;;;;;;1.92;0.50;;;;;;;;;;5070174;28;20055;-71
2023/04/13 10:48:04;;;;;;;2.75;0.50;;;;;;;;;;5070178;28;20040;-71
2023/04/13 10:50:31;;;;;;;1.27;0.50;;;;;;;;;;5069879;28;20123;-71
2023/04/13 10:52:59;;;;;;;2.72;0.57;;;;;;;;;;5070314;28;20049;-71
2023/04/13 10:55:26;;;;;;;1.33;0.50;;;;;;;;;;5070296;28;20056;-70
2023/04/13 10:57:53;;;;;;;1.35;0.60;;;;;;;;;;5069807;28;20053;-71
2023/04/13 11:00:23;;;;;;;3.83;0.77;;;;;;;;;;5070013;28;20044;-70
2023/04/13 11:02:50;;;;;;;3.35;0.70;;;;;;;;;;5069644;28;20067;-70
2023/04/13 11:05:20;;;;;;;3.90;0.80;;;;;;;;;;5069633;28;20506;-71
2023/04/13 11:07:47;;;;;;;2.80;0.93;;;;;;;;;;5070020;28;20531;-70
2023/04/13 11:10:14;;;;;;;2.90;0.70;;;;;;;;;;5069950;28;20088;-71
2023/04/13 11:12:48;;;;;;;1.98;0.50;;;;;;;;;;5053307;28;20052;-70
2023/04/13 11:15:19;;;;;;;3.80;0.77;;;;;;;;;;5070221;28;20044;-71
2023/04/13 11:17:50;;;;;;;1.83;0.70;;;;;;;;;;5069526;28;20055;-72
2023/04/13 11:20:16;;;;;;;4.75;0.90;;;;;;;;;;5052913;28;20542;-70
2023/04/13 11:22:42;;;;;;;3.53;1.08;;;;;;;;;;5053024;28;20036;-70
2023/04/13 11:25:08;;;;;;;3.20;0.85;;;;;;;;;;5069739;28;20153;-71
2023/04/13 11:27:36;;;;;;;3.92;0.93;;;;;;;;;;5069302;28;20051;-70
2023/04/13 11:30:06;;;;;;;5.07;1.10;;;;;;;;;;5053318;28;20052;-71
2023/04/13 11:32:33;;;;;;;6.03;1.20;;;;;;;;;;5052738;28;20044;-70
2023/04/13 11:35:05;;;;;;;4.38;1.17;;;;;;;;;;5070741;28;20067;-71
2023/04/13 11:37:38;;;;;;;6.43;1.30;;;;;;;;;;5069304;28;20641;-70
2023/04/13 11:40:12;;;;;;;7.93;1.85;;;;;;;;;;5069415;28;20052;-71
2023/04/13 11:42:42;;;;;;;7.75;1.63;;;;;;;;;;5069505;28;20517;-71
2023/04/13 11:45:09;;;;;;;9.45;1.95;;;;;;;;;;5069373;28;20060;-71
2023/04/13 11:47:35;;;;;;;8.55;1.88;;;;;;;;;;5052802;28;20052;-71
2023/04/13 11:50:02;;;;;;;9.55;1.98;;;;;;;;;;5069327;28;20048;-71
2023/04/13 11:52:29;;;;;;;9.50;1.90;;;;;;;;;;5069155;28;20118;-71
2023/04/13 11:54:55;;;;;;;9.73;1.92;;;;;;;;;;5052615;28;20051;-71
2023/04/13 11:57:22;;;;;;;6.10;1.70;;;;;;;;;;5069139;28;20117;-71
2023/04/13 11:59:51;;;;;;;8.75;2.28;;;;;;;;;;5069142;28;20044;-71
2023/04/13 12:02:37;;;;;;;8.77;2.47;;;;;;;;;;5069339;28;20040;-71
2023/04/13 12:05:04;;;;;;;10.10;2.13;;;;;;;;;;5068895;28;20529;-71
2023/04/13 12:07:31;;;;;;;10.07;1.80;;;;;;;;;;5052330;28;20063;-72
2023/04/13 12:09:58;;;;;;;9.55;1.55;;;;;;;;;;5069275;28;20071;-71
2023/04/13 12:12:25;;;;;;;8.70;1.83;;;;;;;;;;5068844;28;20044;-70
2023/04/13 12:14:56;;;;;;;9.07;1.75;;;;;;;;;;5069056;28;20444;-71
2023/04/13 12:17:22;;;;;;;7.50;1.80;;;;;;;;;;5068924;28;20053;-71
2023/04/13 12:19:53;;;;;;;7.75;1.98;;;;;;;;;;5068616;28;20044;-71
2023/04/13 12:22:20;;;;;;;7.75;1.70;;;;;;;;;;5068417;28;20041;-71
2023/04/13 12:24:46;;;;;;;9.18;2.03;;;;;;;;;;5068797;28;20048;-70
2023/04/13 12:27:12;;;;;;;8.85;1.80;;;;;;;;;;5069198;28;20067;-71
2023/04/13 12:29:39;;;;;;;7.93;1.92;;;;;;;;;;5068659;28;20507;-72
2023/04/13 12:32:15;;;;;;;8.27;1.55;;;;;;;;;;5069173;28;20080;-71
2023/04/13 12:34:42;;;;;;;6.43;1.67;;;;;;;;;;5068707;28;20080;-71
2023/04/13 12:37:08;;;;;;;9.00;1.90;;;;;;;;;;5052115;28;20207;-71
2023/04/13 12:39:35;;;;;;;8.30;1.73;;;;;;;;;;5069867;28;20124;-71
2023/04/13 12:42:01;;;;;;;;;;;;;;;;;;5073116;28;20052;-71
2023/04/13 12:44:27;;;;;;;8.73;2.08;;;;;;;;;;5072502;28;20023;-70
2023/04/13 12:46:53;;;;;;;7.25;1.80;;;;;;;;;;5074070;28;20040;-71
2023/04/13 12:49:19;;;;;;;10.90;2.33;;;;;;;;;;5072805;28;20165;-71
2023/04/13 12:51:45;;;;;;;7.03;1.63;;;;;;;;;;5072453;28;20444;-71
2023/04/13 12:54:16;;;;;;;8.25;1.63;;;;;;;;;;5072529;28;20467;-72
2023/04/13 12:56:42;;;;;;;7.95;1.65;;;;;;;;;;5072329;28;20051;-71
2023/04/13 12:59:08;;;;;;;7.55;1.70;;;;;;;;;;5073754;28;20109;-71
2023/04/13 13:01:36;;;;;;;10.30;1.63;;;;;;;;;;5072487;28;20076;-71
2023/04/13 13:04:03;;;;;;;7.50;1.80;;;;;;;;;;5072026;28;20051;-71
2023/04/13 13:06:29;;;;;;;8.77;1.70;;;;;;;;;;5072214;28;20043;-71
2023/04/13 13:08:55;;;;;;;7.68;1.75;;;;;;;;;;5072182;28;20163;-71
2023/04/13 13:11:21;;;;;;;8.23;1.70;;;;;;;;;;5072206;28;20044;-71
2023/04/13 13:13:47;;;;;;;10.35;1.85;;;;;;;;;;5071891;28;20049;-70
2023/04/13 13:16:13;;;;;;;8.18;1.80;;;;;;;;;;5071924;28;20519;-70
2023/04/13 13:18:40;;;;;;;8.43;1.80;;;;;;;;;;5071700;28;20044;-71
2023/04/13 13:21:06;;;;;;;6.88;1.67;;;;;;;;;;5072124;28;20238;-71
2023/04/13 13:23:32;;;;;;;9.55;1.60;;;;;;;;;;5105986;28;20052;-70
2023/04/13 13:25:58;;;;;;;11.15;1.95;;;;;;;;;;5073185;28;20040;-71
2023/04/13 13:28:24;;;;;;;8.63;1.85;;;;;;;;;;5073196;28;20044;-71
2023/04/13 13:30:50;;;;;;;9.48;1.67;;;;;;;;;;5071814;28;20044;-70
2023/04/13 13:33:16;;;;;;;9.32;1.48;;;;;;;;;;5071890;28;20389;-71
2023/04/13 13:35:42;;;;;;;8.70;1.85;;;;;;;;;;5071589;28;20044;-71
2023/04/13 13:38:08;;;;;;;5.15;1.65;;;;;;;;;;5054911;28;20041;-71
2023/04/13 13:40:34;;;;;;;7.72;1.40;;;;;;;;;;5071567;28;20109;-71
2023/04/13 13:43:00;;;;;;;9.32;1.70;;;;;;;;;;5071937;28;20044;-71
2023/04/13 13:45:26;;;;;;;6.07;1.60;;;;;;;;;;5071472;28;20060;-71
2023/04/13 13:47:54;;;;;;;7.18;1.52;;;;;;;;;;5071655;28;20068;-71
2023/04/13 13:50:20;;;;;;;8.13;1.45;;;;;;;;;;5071088;28;20055;-71
2023/04/13 13:52:50;;;;;;;6.32;1.58;;;;;;;;;;5070970;28;20479;-71
2023/04/13 13:55:21;;;;;;;8.35;1.60;;;;;;;;;;5071569;28;20102;-71
2023/04/13 13:57:47;;;;;;;4.50;1.20;;;;;;;;;;5071515;28;20412;-71
2023/04/13 14:00:16;;;;;;;5.85;1.35;;;;;;;;;;5071333;28;20455;-71
2023/04/13 14:02:43;;;;;;;8.07;1.83;;;;;;;;;;5071339;28;20079;-71
2023/04/13 14:05:12;;;;;;;4.18;1.33;;;;;;;;;;5071420;28;20529;-71
2023/04/13 14:07:45;;;;;;;5.50;1.60;;;;;;;;;;5071184;28;20052;-71
2023/04/13 14:10:11;;;;;;;4.90;1.48;;;;;;;;;;5071053;28;20052;-71
2023/04/13 14:12:39;;;;;;;7.88;1.65;;;;;;;;;;5054271;28;20544;-70
2023/04/13 14:15:06;;;;;;;7.38;1.50;;;;;;;;;;5054277;28;20049;-71
2023/04/13 14:17:32;;;;;;;6.28;1.45;;;;;;;;;;5072177;28;20167;-71
2023/04/13 14:19:59;;;;;;;7.75;1.38;;;;;;;;;;5070801;28;20072;-71
2023/04/13 14:22:25;;;;;;;6.72;1.63;;;;;;;;;;5070637;28;20396;-71
2023/04/13 14:24:53;;;;;;;;;;;;;;;;;;5054680;28;20043;-71
2023/04/13 14:27:19;;;;;;;4.88;1.30;;;;;;;;;;5070799;28;20315;-71
2023/04/13 14:29:46;;;;;;;7.65;1.63;;;;;;;;;;5070650;28;20052;-71
2023/04/13 14:32:12;;;;;;;9.23;1.45;;;;;;;;;;5070785;28;20040;-70
2023/04/13 14:34:38;;;;;;;6.30;1.52;;;;;;;;;;5053831;28;20484;-72
2023/04/13 14:37:05;;;;;;;7.60;1.45;;;;;;;;;;5071033;28;20040;-72
2023/04/13 14:39:32;;;;;;;7.03;1.75;;;;;;;;;;5070856;28;20083;-72
2023/04/13 14:41:58;;;;;;;5.90;1.40;;;;;;;;;;5070317;28;20044;-72
2023/04/13 14:44:24;;;;;;;7.88;1.35;;;;;;;;;;5070607;28;20029;-72
2023/04/13 14:46:50;;;;;;;8.73;1.88;;;;;;;;;;5070256;28;20048;-72
2023/04/13 14:49:17;;;;;;;7.07;1.40;;;;;;;;;;5070379;28;20052;-72